Araguaiana Airport


Codes: SWAY/0
Name: Araguaiana Airport
City: Araguaiana
Country: Brazil
Elevation: 994 ft.

Photos at Araguaiana Airport


   Photos courtesy of SpottingLog. You can add your own sightings and photos by signing up for a free trial today.



No photos found.

Weather at Araguaiana Airport


Time (UTC)DescriptionTempratureWindCloud coverageVisibilityPressureHumidity
16-Jun-2024 09:00Clear Sky18°C4 mph, SE0%10000m1017hPa48%
16-Jun-2024 12:00Clear Sky20°C2 mph, E0%10000m1018hPa45%
16-Jun-2024 15:00Clear Sky27°C7 mph, NE0%10000m1017hPa32%
16-Jun-2024 18:00Clear Sky33°C4 mph, E0%10000m1013hPa21%
16-Jun-2024 21:00Clear Sky26°C2 mph, E0%10000m1013hPa31%
17-Jun-2024 00:00Clear Sky22°C2 mph, NE0%10000m1014hPa39%
17-Jun-2024 03:00Clear Sky20°C0 mph, NW0%10000m1014hPa45%
17-Jun-2024 06:00Clear Sky18°C4 mph, E0%10000m1014hPa49%
17-Jun-2024 09:00Clear Sky16°C2 mph, SE0%10000m1014hPa49%
17-Jun-2024 12:00Clear Sky23°C2 mph, SE0%10000m1016hPa34%
17-Jun-2024 15:00Clear Sky31°C4 mph, NE0%10000m1014hPa23%
17-Jun-2024 18:00Clear Sky33°C4 mph, N0%10000m1010hPa18%
17-Jun-2024 21:00Clear Sky26°C4 mph, NW0%10000m1011hPa28%
18-Jun-2024 00:00Clear Sky22°C2 mph, W0%10000m1012hPa34%
18-Jun-2024 03:00Clear Sky20°C2 mph, SE0%10000m1012hPa38%
18-Jun-2024 06:00Clear Sky18°C2 mph, S0%10000m1012hPa42%
18-Jun-2024 09:00Clear Sky17°C4 mph, E0%10000m1013hPa45%
18-Jun-2024 12:00Clear Sky24°C2 mph, SE0%10000m1015hPa32%
18-Jun-2024 15:00Clear Sky32°C7 mph, NE0%10000m1013hPa20%
18-Jun-2024 18:00Clear Sky34°C7 mph, N0%10000m1009hPa16%
18-Jun-2024 21:00Clear Sky27°C4 mph, N0%10000m1010hPa26%
19-Jun-2024 00:00Clear Sky24°C4 mph, W0%10000m1011hPa32%
19-Jun-2024 03:00Clear Sky21°C2 mph, E0%10000m1012hPa36%
19-Jun-2024 06:00Clear Sky19°C4 mph, SE0%10000m1012hPa40%
19-Jun-2024 09:00Clear Sky18°C2 mph, SE0%10000m1013hPa44%
19-Jun-2024 12:00Clear Sky24°C4 mph, E0%10000m1015hPa33%
19-Jun-2024 15:00Clear Sky33°C4 mph, NE0%10000m1014hPa20%
19-Jun-2024 18:00Clear Sky35°C7 mph, N0%10000m1010hPa16%
19-Jun-2024 21:00Clear Sky27°C2 mph, N0%10000m1010hPa25%
20-Jun-2024 00:00Clear Sky24°C2 mph, NW0%10000m1012hPa32%
20-Jun-2024 03:00Clear Sky22°C2 mph, SE0%10000m1013hPa36%
20-Jun-2024 06:00Clear Sky20°C4 mph, S0%10000m1012hPa38%
20-Jun-2024 09:00Clear Sky19°C4 mph, SE0%10000m1013hPa41%
20-Jun-2024 12:00Clear Sky26°C2 mph, SE0%10000m1015hPa28%
20-Jun-2024 15:00Clear Sky34°C4 mph, E0%10000m1014hPa18%
20-Jun-2024 18:00Clear Sky36°C2 mph, NE0%10000m1010hPa16%
20-Jun-2024 21:00Clear Sky28°C2 mph, NW0%10000m1010hPa26%
21-Jun-2024 00:00Clear Sky25°C2 mph, W0%10000m1012hPa34%
21-Jun-2024 03:00Clear Sky23°C2 mph, SW1%10000m1012hPa38%
21-Jun-2024 06:00Clear Sky21°C4 mph, SE1%10000m1011hPa40%